createdAt,value
2018-12-24T00:00:40.462Z,12.79
2018-12-24T00:02:10.695Z,12.85
2018-12-24T00:03:41.016Z,12.82
2018-12-24T00:05:11.070Z,12.84
2018-12-24T00:06:41.119Z,12.82
2018-12-24T00:08:11.304Z,12.82
2018-12-24T00:09:41.273Z,12.81
2018-12-24T00:11:11.425Z,12.84
2018-12-24T00:12:41.627Z,12.83
2018-12-24T00:14:11.782Z,12.90
2018-12-24T00:15:41.954Z,12.82
2018-12-24T00:17:12.175Z,12.83
2018-12-24T00:18:42.249Z,12.82
2018-12-24T00:20:12.290Z,12.80
2018-12-24T00:21:42.246Z,12.71
2018-12-24T00:23:12.229Z,12.55
2018-12-24T00:24:42.183Z,12.13
2018-12-24T00:26:12.161Z,11.52
2018-12-24T00:27:42.227Z,10.97
2018-12-24T00:29:12.306Z,10.64
2018-12-24T00:30:42.639Z,10.38
2018-12-24T00:32:12.822Z,10.28
2018-12-24T00:33:42.892Z,10.18
2018-12-24T00:35:12.983Z,10.10
2018-12-24T00:36:43.397Z,10.00
2018-12-24T00:38:13.614Z,9.89
2018-12-24T00:39:43.575Z,9.76
2018-12-24T00:41:13.911Z,9.72
2018-12-24T00:42:44.249Z,9.61
2018-12-24T00:44:14.422Z,9.61
2018-12-24T00:45:44.634Z,9.51
2018-12-24T00:47:14.942Z,9.41
2018-12-24T00:48:45.133Z,9.38
2018-12-24T00:50:15.321Z,9.34
2018-12-24T00:51:45.416Z,9.30
2018-12-24T00:53:15.403Z,9.27
2018-12-24T00:54:45.550Z,9.22
2018-12-24T00:56:15.623Z,9.14
2018-12-24T00:57:45.935Z,9.12
2018-12-24T00:59:16.096Z,9.06
2018-12-24T01:00:46.253Z,8.97
2018-12-24T01:02:16.427Z,8.90
2018-12-24T01:03:46.612Z,8.95
2018-12-24T01:05:16.767Z,8.90
2018-12-24T01:06:46.835Z,8.84
2018-12-24T01:08:17.025Z,8.90
2018-12-24T01:09:47.421Z,8.92
2018-12-24T01:11:17.578Z,8.97
2018-12-24T01:12:48.003Z,8.89
2018-12-24T01:14:18.090Z,8.70
2018-12-24T01:15:48.043Z,8.61
2018-12-24T01:17:18.213Z,8.61
2018-12-24T01:18:48.189Z,8.55
2018-12-24T01:20:18.362Z,8.46
2018-12-24T01:21:48.536Z,8.33
2018-12-24T01:23:18.964Z,8.26
2018-12-24T01:24:49.419Z,8.18
2018-12-24T01:26:19.742Z,8.13
2018-12-24T01:27:50.101Z,8.13
2018-12-24T01:29:20.421Z,8.09
2018-12-24T01:30:50.581Z,8.06
2018-12-24T01:32:20.987Z,8.00
2018-12-24T01:33:51.560Z,7.97
2018-12-24T01:35:21.728Z,7.92
2018-12-24T01:36:51.897Z,7.96
2018-12-24T01:38:22.080Z,7.93
2018-12-24T01:39:52.145Z,7.94
2018-12-24T01:41:22.592Z,7.90
2018-12-24T01:42:52.642Z,7.87
2018-12-24T01:44:23.283Z,7.89
2018-12-24T01:45:53.439Z,7.79
2018-12-24T01:47:23.627Z,7.77
2018-12-24T01:48:53.812Z,7.82
2018-12-24T01:50:24.222Z,7.79
2018-12-24T01:51:54.406Z,7.78
2018-12-24T01:53:24.812Z,7.78
2018-12-24T01:54:55.008Z,7.66
2018-12-24T01:56:24.960Z,7.53
2018-12-24T01:57:55.370Z,7.43
2018-12-24T01:59:25.553Z,7.33
2018-12-24T02:00:55.967Z,7.31
2018-12-24T02:02:26.157Z,7.20
2018-12-24T02:03:56.328Z,7.12
2018-12-24T02:05:26.744Z,7.13
2018-12-24T02:06:56.819Z,7.10
2018-12-24T02:08:27.015Z,7.02
2018-12-24T02:09:57.188Z,6.98
2018-12-24T02:11:27.353Z,6.92
2018-12-24T02:12:57.512Z,6.87
2018-12-24T02:14:27.929Z,6.84
2018-12-24T02:15:58.075Z,6.81
2018-12-24T02:17:28.237Z,6.79
2018-12-24T02:18:58.430Z,6.72
2018-12-24T02:20:28.593Z,6.71
2018-12-24T02:21:58.759Z,6.74
2018-12-24T02:23:29.232Z,6.74
2018-12-24T02:24:59.420Z,6.69
2018-12-24T02:26:29.598Z,6.64
2018-12-24T02:28:00.018Z,6.63
2018-12-24T02:29:30.226Z,6.58
2018-12-24T02:31:00.432Z,6.57
2018-12-24T02:32:30.835Z,6.53
2018-12-24T02:34:01.282Z,6.62
2018-12-24T02:35:31.730Z,6.63
2018-12-24T02:37:01.932Z,6.55
2018-12-24T02:38:32.528Z,6.53
2018-12-24T02:40:03.252Z,6.49
2018-12-24T02:41:33.417Z,6.47
2018-12-24T02:43:03.808Z,6.48
2018-12-24T02:44:34.259Z,6.55
2018-12-24T02:46:04.696Z,6.52
2018-12-24T02:47:34.854Z,6.49
2018-12-24T02:49:05.028Z,6.48
2018-12-24T02:50:35.358Z,6.43
2018-12-24T02:52:05.980Z,6.50
2018-12-24T02:53:36.540Z,6.53
2018-12-24T02:55:06.744Z,6.56
2018-12-24T02:56:37.064Z,6.47
2018-12-24T02:58:07.257Z,6.44
2018-12-24T02:59:37.573Z,6.45
2018-12-24T03:01:08.011Z,6.42
2018-12-24T03:02:38.199Z,6.41
2018-12-24T03:04:08.372Z,6.48
2018-12-24T03:05:38.595Z,6.43
2018-12-24T03:07:08.733Z,6.46
2018-12-24T03:08:39.145Z,6.40
2018-12-24T03:10:09.333Z,6.46
2018-12-24T03:11:39.513Z,6.42
2018-12-24T03:13:09.927Z,6.31
2018-12-24T03:14:40.112Z,6.29
2018-12-24T03:16:10.290Z,6.28
2018-12-24T03:17:40.467Z,6.31
2018-12-24T03:19:10.909Z,6.42
2018-12-24T03:20:41.092Z,6.46
2018-12-24T03:22:11.254Z,6.45
2018-12-24T03:23:41.440Z,6.48
2018-12-24T03:25:11.622Z,6.53
2018-12-24T03:26:42.040Z,6.57
2018-12-24T03:28:12.632Z,6.66
2018-12-24T03:29:42.814Z,6.48
2018-12-24T03:31:12.998Z,6.41
2018-12-24T03:32:43.186Z,6.44
2018-12-24T03:34:13.601Z,6.46
2018-12-24T03:35:43.789Z,6.53
2018-12-24T03:37:14.252Z,6.48
2018-12-24T03:38:44.334Z,6.43
2018-12-24T03:40:14.766Z,6.36
2018-12-24T03:41:44.947Z,6.28
2018-12-24T03:43:15.380Z,6.24
2018-12-24T03:44:45.576Z,6.17
2018-12-24T03:46:15.753Z,6.16
2018-12-24T03:47:46.296Z,6.06
2018-12-24T03:49:18.087Z,6.01
2018-12-24T03:50:48.513Z,5.91
2018-12-24T03:52:18.945Z,5.89
2018-12-24T03:53:49.286Z,5.96
2018-12-24T03:55:19.484Z,5.88
2018-12-24T03:56:49.736Z,5.82
2018-12-24T03:58:20.167Z,5.88
2018-12-24T03:59:50.352Z,5.88
2018-12-24T04:01:20.532Z,6.00
2018-12-24T04:02:50.937Z,6.09
2018-12-24T04:04:21.104Z,6.14
2018-12-24T04:05:51.408Z,6.11
2018-12-24T04:07:21.576Z,5.95
2018-12-24T04:08:52.009Z,5.98
2018-12-24T04:10:22.093Z,6.13
2018-12-24T04:11:52.325Z,6.09
2018-12-24T04:13:22.976Z,6.04
2018-12-24T04:14:53.291Z,5.93
2018-12-24T04:16:23.729Z,5.89
2018-12-24T04:17:54.074Z,5.90
2018-12-24T04:19:24.755Z,5.85
2018-12-24T04:20:55.187Z,5.81
2018-12-24T04:22:25.625Z,5.75
2018-12-24T04:23:55.830Z,5.67
2018-12-24T04:25:26.010Z,5.62
2018-12-24T04:26:56.191Z,5.69
2018-12-24T04:28:26.619Z,5.74
2018-12-24T04:29:57.115Z,5.83
2018-12-24T04:31:27.322Z,5.85
2018-12-24T04:32:57.652Z,5.91
2018-12-24T04:34:28.363Z,5.85
2018-12-24T04:35:58.549Z,5.82
2018-12-24T04:37:28.720Z,5.74
2018-12-24T04:38:58.890Z,5.73
2018-12-24T04:40:29.075Z,5.84
2018-12-24T04:41:59.761Z,5.91
2018-12-24T04:43:32.414Z,5.98
2018-12-24T04:45:02.231Z,5.97
2018-12-24T04:46:32.451Z,6.02
2018-12-24T04:48:02.631Z,6.03
2018-12-24T04:49:32.823Z,5.91
2018-12-24T04:51:03.002Z,5.84
2018-12-24T04:52:33.208Z,5.76
2018-12-24T04:54:03.368Z,5.73
2018-12-24T04:55:33.776Z,5.68
2018-12-24T04:57:03.957Z,5.77
2018-12-24T04:58:34.121Z,5.86
2018-12-24T05:00:04.709Z,5.89
2018-12-24T05:01:34.798Z,5.88
2018-12-24T05:03:05.150Z,5.91
2018-12-24T05:04:35.337Z,5.99
2018-12-24T05:06:05.778Z,5.91
2018-12-24T05:07:35.953Z,5.83
2018-12-24T05:09:06.531Z,5.88
2018-12-24T05:10:36.860Z,5.86
2018-12-24T05:12:07.005Z,5.93
2018-12-24T05:13:40.978Z,6.00
2018-12-24T05:15:09.380Z,6.02
2018-12-24T05:16:39.985Z,6.06
2018-12-24T05:18:10.400Z,6.04
2018-12-24T05:19:40.973Z,5.92
2018-12-24T05:21:11.370Z,5.98
2018-12-24T05:22:41.525Z,5.99
2018-12-24T05:24:11.703Z,5.96
2018-12-24T05:25:41.875Z,6.00
2018-12-24T05:27:12.635Z,5.98
2018-12-24T05:28:42.830Z,5.88
2018-12-24T05:30:13.098Z,5.89
2018-12-24T05:31:43.556Z,5.87
2018-12-24T05:33:13.723Z,5.92
2018-12-24T05:34:44.151Z,6.01
2018-12-24T05:36:14.576Z,5.96
2018-12-24T05:37:44.746Z,5.94
2018-12-24T05:39:14.956Z,5.93
2018-12-24T05:40:45.366Z,6.01
2018-12-24T05:42:15.548Z,6.04
2018-12-24T05:43:49.499Z,6.11
2018-12-24T05:45:17.995Z,6.16
2018-12-24T05:46:48.185Z,6.10
2018-12-24T05:48:18.349Z,6.10
2018-12-24T05:49:48.522Z,6.16
2018-12-24T05:51:18.727Z,6.13
2018-12-24T05:52:49.218Z,6.16
2018-12-24T05:54:19.390Z,6.05
2018-12-24T05:55:49.577Z,6.01
2018-12-24T05:57:19.820Z,6.03
2018-12-24T05:58:50.265Z,6.16
2018-12-24T06:00:20.692Z,6.15
2018-12-24T06:01:50.770Z,6.04
2018-12-24T06:03:21.199Z,6.06
2018-12-24T06:04:51.520Z,5.97
2018-12-24T06:06:21.822Z,5.96
2018-12-24T06:07:52.533Z,5.99
2018-12-24T06:09:22.731Z,5.84
2018-12-24T06:11:29.856Z,5.79
2018-12-24T06:13:00.094Z,5.82
2018-12-24T06:14:30.254Z,5.85
2018-12-24T06:16:00.406Z,5.83
2018-12-24T06:17:30.837Z,5.80
2018-12-24T06:19:01.024Z,5.79
2018-12-24T06:20:37.615Z,5.82
2018-12-24T06:22:03.690Z,5.73
2018-12-24T06:23:33.648Z,5.68
2018-12-24T06:25:03.994Z,5.66
2018-12-24T06:26:34.185Z,5.70
2018-12-24T06:30:51.000Z,5.61
2018-12-24T06:32:21.324Z,5.70
2018-12-24T06:33:51.725Z,5.62
2018-12-24T06:35:21.887Z,5.56
2018-12-24T06:36:51.972Z,5.59
2018-12-24T06:38:22.160Z,5.65
2018-12-24T06:39:52.356Z,5.68
2018-12-24T06:41:22.521Z,5.66
2018-12-24T06:42:52.901Z,5.67
2018-12-24T06:44:23.592Z,5.81
2018-12-24T06:45:53.772Z,5.87
2018-12-24T06:47:23.960Z,5.79
2018-12-24T06:48:54.308Z,5.78
2018-12-24T06:50:24.264Z,5.70
2018-12-24T06:51:54.452Z,5.72
2018-12-24T06:53:24.645Z,5.69
2018-12-24T06:54:54.818Z,5.74
2018-12-24T06:56:25.225Z,5.76
2018-12-24T06:57:55.405Z,5.74
2018-12-24T06:59:25.762Z,5.63
2018-12-24T07:00:55.918Z,5.65
2018-12-24T07:02:26.147Z,5.58
2018-12-24T07:04:11.521Z,5.60
2018-12-24T07:05:41.701Z,5.51
2018-12-24T07:07:12.200Z,5.59
2018-12-24T07:08:42.387Z,5.69
2018-12-24T07:10:12.785Z,5.76
2018-12-24T07:11:43.201Z,5.84
2018-12-24T07:13:13.630Z,5.84
2018-12-24T07:14:43.810Z,5.83
2018-12-24T07:16:14.216Z,5.88
2018-12-24T07:17:44.677Z,5.98
2018-12-24T07:19:14.735Z,5.96
2018-12-24T07:20:45.297Z,5.87
2018-12-24T07:22:15.614Z,5.92
2018-12-24T07:23:45.780Z,5.96
2018-12-24T07:25:15.949Z,6.03
2018-12-24T07:26:58.529Z,6.03
2018-12-24T07:28:28.838Z,5.95
2018-12-24T07:29:59.005Z,6.00
2018-12-24T07:31:29.411Z,6.10
2018-12-24T07:32:59.597Z,6.13
2018-12-24T07:34:32.662Z,6.28
2018-12-24T07:36:01.841Z,6.31
2018-12-24T07:37:32.265Z,6.36
2018-12-24T07:39:17.521Z,6.28
2018-12-24T07:40:47.719Z,6.37
2018-12-24T07:42:17.948Z,6.33
2018-12-24T07:43:47.986Z,6.29
2018-12-24T07:45:18.385Z,6.31
2018-12-24T07:46:48.723Z,6.27
2018-12-24T07:48:18.889Z,6.32
2018-12-24T07:49:49.294Z,6.32
2018-12-24T07:51:19.489Z,6.36
2018-12-24T07:52:50.076Z,6.39
2018-12-24T07:54:20.255Z,6.28
2018-12-24T07:55:50.657Z,6.21
2018-12-24T07:57:21.097Z,6.19
2018-12-24T07:58:51.328Z,6.25
2018-12-24T08:00:21.749Z,6.26
2018-12-24T08:01:52.175Z,6.25
2018-12-24T08:03:41.952Z,6.32
2018-12-24T08:05:12.113Z,6.38
2018-12-24T08:06:42.281Z,6.37
2018-12-24T08:08:12.745Z,6.38
2018-12-24T08:09:43.426Z,6.37
2018-12-24T08:11:13.589Z,6.34
2018-12-24T08:12:43.771Z,6.36
2018-12-24T08:14:13.999Z,6.35
2018-12-24T08:15:44.235Z,6.26
2018-12-24T08:17:14.438Z,6.10
2018-12-24T08:18:44.897Z,5.97
2018-12-24T08:20:15.130Z,5.97
2018-12-24T08:21:45.370Z,5.94
2018-12-24T08:23:15.681Z,5.96
2018-12-24T08:24:45.832Z,5.97
2018-12-24T08:26:18.673Z,5.99
2018-12-24T08:27:48.844Z,6.01
2018-12-24T08:29:19.550Z,6.03
2018-12-24T08:30:50.058Z,5.97
2018-12-24T08:32:54.127Z,5.98
2018-12-24T08:34:24.904Z,6.01
2018-12-24T08:35:55.021Z,6.13
2018-12-24T08:37:25.323Z,6.27
2018-12-24T08:38:55.543Z,6.43
2018-12-24T08:40:25.737Z,6.47
2018-12-24T08:41:55.921Z,6.65
2018-12-24T08:43:25.992Z,6.81
2018-12-24T08:44:56.245Z,6.89
2018-12-24T08:46:26.367Z,6.95
2018-12-24T08:47:56.540Z,6.99
2018-12-24T08:49:26.991Z,6.90
2018-12-24T08:50:57.452Z,6.74
2018-12-24T08:52:27.678Z,6.51
2018-12-24T08:53:57.888Z,6.40
2018-12-24T08:55:28.059Z,6.37
2018-12-24T08:57:04.214Z,6.43
2018-12-24T08:58:34.590Z,6.46
2018-12-24T09:00:04.818Z,6.61
2018-12-24T09:01:35.375Z,6.69
2018-12-24T09:03:05.530Z,6.68
2018-12-24T09:04:35.751Z,6.70
2018-12-24T09:06:05.954Z,6.78
2018-12-24T09:07:36.553Z,6.89
2018-12-24T09:09:07.040Z,6.89
2018-12-24T09:10:37.277Z,6.92
2018-12-24T09:12:19.511Z,6.94
2018-12-24T09:13:49.949Z,6.94
2018-12-24T09:15:20.146Z,7.00
2018-12-24T09:16:50.676Z,7.04
2018-12-24T09:18:20.989Z,7.07
2018-12-24T09:19:51.168Z,7.02
2018-12-24T09:21:21.370Z,7.08
2018-12-24T09:22:51.821Z,7.16
2018-12-24T09:24:22.048Z,7.16
2018-12-24T09:25:52.285Z,7.12
2018-12-24T09:27:22.787Z,7.13
2018-12-24T09:28:53.102Z,7.19
2018-12-24T09:30:23.554Z,7.28
2018-12-24T09:31:53.783Z,7.36
2018-12-24T09:33:24.366Z,7.44
2018-12-24T09:34:54.709Z,7.47
2018-12-24T09:36:52.275Z,7.52
2018-12-24T09:38:22.423Z,7.44
2018-12-24T09:39:55.198Z,7.36
2018-12-24T09:41:25.421Z,7.35
2018-12-24T09:42:55.626Z,7.41
2018-12-24T09:44:26.113Z,7.49
2018-12-24T09:45:56.325Z,7.56
2018-12-24T09:47:26.501Z,7.59
2018-12-24T09:48:56.717Z,7.64
2018-12-24T09:50:27.185Z,7.65
2018-12-24T09:51:57.440Z,7.68
2018-12-24T09:58:31.259Z,7.56
2018-12-24T10:00:01.458Z,7.56
2018-12-24T10:01:51.053Z,7.61
2018-12-24T10:03:34.680Z,7.57
2018-12-24T10:05:05.208Z,7.34
2018-12-24T10:07:33.273Z,7.27
2018-12-24T10:09:08.442Z,7.37
2018-12-24T10:10:38.409Z,7.73
2018-12-24T10:12:08.505Z,8.08
2018-12-24T10:15:08.213Z,8.60
2018-12-24T10:16:38.458Z,8.74
2018-12-24T10:18:08.862Z,8.87
2018-12-24T10:19:38.951Z,8.93
2018-12-24T10:21:08.924Z,9.05
2018-12-24T10:22:39.030Z,9.05
2018-12-24T10:24:09.178Z,9.11
2018-12-24T10:25:39.424Z,9.02
2018-12-24T10:27:09.649Z,8.98
2018-12-24T10:28:39.878Z,8.86
2018-12-24T10:30:10.325Z,8.85
2018-12-24T10:31:40.443Z,8.88
2018-12-24T10:33:10.695Z,9.08
2018-12-24T10:34:40.944Z,9.31
2018-12-24T10:36:11.326Z,9.40
2018-12-24T10:37:41.594Z,9.41
2018-12-24T10:39:11.744Z,9.62
2018-12-24T10:40:53.142Z,9.67
2018-12-24T10:42:23.808Z,9.64
2018-12-24T10:43:54.274Z,9.63
2018-12-24T10:45:27.451Z,9.58
2018-12-24T10:46:58.513Z,9.54
2018-12-24T10:48:29.123Z,9.47
2018-12-24T10:49:59.893Z,9.53
2018-12-24T10:52:28.387Z,9.70
2018-12-24T10:53:58.320Z,9.51
2018-12-24T10:55:28.236Z,9.34
2018-12-24T10:57:13.330Z,9.15
2018-12-24T10:58:43.411Z,8.91
2018-12-24T11:00:12.983Z,8.86
2018-12-24T11:01:44.676Z,8.72
2018-12-24T11:03:14.726Z,8.66
2018-12-24T11:04:45.444Z,8.67
2018-12-24T11:06:15.322Z,8.77
2018-12-24T11:07:45.193Z,8.66
2018-12-24T11:09:15.472Z,8.58
2018-12-24T11:10:46.738Z,8.63
2018-12-24T11:12:16.841Z,8.77
2018-12-24T11:13:46.894Z,9.01
2018-12-24T11:15:21.327Z,9.18
2018-12-24T11:16:48.551Z,9.26
2018-12-24T11:18:18.417Z,9.37
2018-12-24T11:19:48.858Z,9.67
2018-12-24T11:21:18.859Z,9.71
2018-12-24T11:22:48.649Z,9.72
2018-12-24T11:24:18.621Z,9.82
2018-12-24T11:25:48.571Z,10.00
2018-12-24T11:27:19.484Z,9.89
2018-12-24T11:28:49.465Z,9.64
2018-12-24T11:30:19.647Z,9.54
2018-12-24T11:31:49.454Z,9.53
2018-12-24T11:33:22.242Z,9.15
2018-12-24T11:34:52.164Z,8.87
2018-12-24T11:36:22.019Z,8.67
2018-12-24T11:37:51.631Z,8.55
2018-12-24T11:39:21.452Z,8.36
2018-12-24T11:40:51.937Z,8.27
2018-12-24T11:42:21.737Z,8.19
2018-12-24T11:43:51.569Z,8.09
2018-12-24T11:45:21.456Z,8.08
2018-12-24T11:46:54.100Z,8.22
2018-12-24T11:48:24.548Z,8.23
2018-12-24T11:49:54.194Z,8.31
2018-12-24T11:51:24.113Z,8.28
2018-12-24T11:52:53.638Z,8.26
2018-12-24T11:54:26.237Z,8.28
2018-12-24T11:55:56.290Z,8.35
2018-12-24T11:57:26.014Z,8.43
2018-12-24T11:58:55.881Z,8.59
2018-12-24T12:00:25.838Z,8.60
2018-12-24T12:01:55.847Z,8.63
2018-12-24T12:03:25.545Z,8.72
2018-12-24T12:04:55.229Z,8.80
2018-12-24T12:06:25.241Z,8.84
2018-12-24T12:07:55.037Z,8.82
2018-12-24T12:09:24.883Z,8.81
2018-12-24T12:10:55.432Z,8.63
2018-12-24T12:12:26.487Z,8.52
2018-12-24T12:13:56.293Z,8.42
2018-12-24T12:15:26.128Z,8.40
2018-12-24T12:16:55.759Z,8.39
2018-12-24T12:18:25.501Z,8.37
2018-12-24T12:19:55.149Z,8.27
2018-12-24T12:21:24.983Z,8.09
2018-12-24T12:22:54.789Z,7.95
2018-12-24T12:24:24.346Z,7.95
2018-12-24T12:25:54.081Z,7.94
2018-12-24T12:27:23.750Z,8.01
2018-12-24T12:28:53.417Z,8.01
2018-12-24T12:30:23.059Z,7.88
2018-12-24T12:31:52.667Z,7.85
2018-12-24T12:33:22.361Z,7.65
2018-12-24T12:34:52.059Z,7.56
2018-12-24T12:36:21.730Z,7.57
2018-12-24T12:37:51.351Z,7.48
2018-12-24T12:39:20.986Z,7.38
2018-12-24T12:40:50.628Z,7.42
2018-12-24T12:42:20.147Z,7.47
2018-12-24T12:43:49.681Z,7.53
2018-12-24T12:45:19.268Z,7.57
2018-12-24T12:46:48.877Z,7.58
2018-12-24T12:48:18.403Z,7.59
2018-12-24T12:49:47.964Z,7.60
2018-12-24T12:51:17.633Z,7.67
2018-12-24T12:52:47.252Z,7.75
2018-12-24T12:54:17.004Z,7.82
2018-12-24T12:55:46.537Z,7.92
2018-12-24T12:57:16.300Z,8.11
2018-12-24T12:58:45.975Z,8.16
2018-12-24T13:00:15.584Z,8.16
2018-12-24T13:01:45.247Z,8.01
2018-12-24T13:03:15.476Z,7.93
2018-12-24T13:04:45.397Z,8.00
2018-12-24T13:06:15.231Z,7.97
2018-12-24T13:07:44.859Z,7.99
2018-12-24T13:09:14.555Z,8.00
2018-12-24T13:10:45.393Z,8.06
2018-12-24T13:12:15.195Z,8.13
2018-12-24T13:13:44.961Z,8.14
2018-12-24T13:15:14.690Z,8.26
2018-12-24T13:16:44.476Z,8.32
2018-12-24T13:18:14.378Z,8.45
2018-12-24T13:19:44.097Z,8.53
2018-12-24T13:21:13.694Z,8.66
2018-12-24T13:22:43.425Z,8.61
2018-12-24T13:24:13.070Z,8.59
2018-12-24T13:25:42.745Z,8.71
2018-12-24T13:27:12.559Z,8.78
2018-12-24T13:28:42.699Z,8.85
2018-12-24T13:30:12.352Z,8.90
2018-12-24T13:37:42.346Z,8.55
2018-12-24T13:39:12.096Z,8.29
2018-12-24T13:40:41.747Z,8.23
2018-12-24T13:42:11.890Z,8.17
2018-12-24T13:43:41.443Z,8.12
2018-12-24T13:45:11.179Z,7.94
2018-12-24T13:46:40.802Z,7.89
2018-12-24T13:48:10.658Z,7.80
2018-12-24T13:49:40.436Z,7.73
2018-12-24T13:51:12.210Z,7.87
2018-12-24T13:52:42.027Z,7.97
2018-12-24T13:54:11.746Z,7.95
2018-12-24T13:55:41.834Z,7.86
2018-12-24T13:57:11.716Z,7.84
2018-12-24T13:58:41.599Z,7.86
2018-12-24T14:00:11.336Z,7.83
2018-12-24T14:04:12.832Z,8.02
2018-12-24T14:05:42.640Z,7.75
2018-12-24T14:07:12.177Z,7.67
2018-12-24T14:08:42.236Z,7.76
2018-12-24T14:10:12.255Z,7.78
2018-12-24T14:11:41.835Z,7.79
2018-12-24T14:13:11.492Z,7.72
2018-12-24T14:14:41.288Z,7.71
2018-12-24T14:16:16.725Z,7.70
2018-12-24T14:17:43.301Z,7.75
2018-12-24T14:19:13.392Z,7.70
2018-12-24T14:20:43.450Z,7.69
2018-12-24T14:22:13.607Z,7.75
2018-12-24T14:23:43.907Z,7.80
2018-12-24T14:25:13.916Z,7.78
2018-12-24T14:26:43.883Z,7.74
2018-12-24T14:28:13.491Z,7.68
2018-12-24T14:29:45.512Z,7.58
2018-12-24T14:31:16.118Z,7.46
2018-12-24T14:32:46.445Z,7.37
2018-12-24T14:34:19.540Z,7.17
2018-12-24T14:35:49.399Z,7.19
2018-12-24T14:37:19.477Z,7.17
2018-12-24T14:38:49.803Z,7.09
2018-12-24T14:40:19.889Z,7.13
2018-12-24T14:41:49.858Z,7.17
2018-12-24T14:43:20.008Z,6.97
2018-12-24T14:52:00.655Z,6.64
2018-12-24T14:53:31.143Z,6.48
2018-12-24T14:55:01.022Z,6.47
2018-12-24T14:56:32.338Z,6.37
2018-12-24T14:58:02.463Z,6.31
2018-12-24T14:59:32.478Z,6.32
2018-12-24T15:01:02.417Z,6.25
2018-12-24T15:02:33.004Z,6.17
2018-12-24T15:04:03.728Z,6.25
2018-12-24T15:05:33.899Z,6.22
2018-12-24T15:07:03.847Z,6.20
2018-12-24T15:08:34.352Z,6.14
2018-12-24T15:10:04.348Z,6.17
2018-12-24T15:11:34.410Z,6.18
2018-12-24T15:13:04.583Z,6.20
2018-12-24T15:14:34.392Z,6.20
2018-12-24T15:16:05.733Z,6.18
2018-12-24T15:17:36.246Z,6.22
2018-12-24T15:19:06.308Z,6.20
2018-12-24T15:20:36.561Z,6.05
2018-12-24T15:22:06.253Z,6.01
2018-12-24T15:23:36.714Z,5.86
2018-12-24T15:25:07.654Z,5.87
2018-12-24T15:26:37.948Z,5.88
2018-12-24T15:28:08.952Z,5.85
2018-12-24T15:29:39.649Z,5.83
2018-12-24T15:31:09.462Z,5.81
2018-12-24T15:32:39.321Z,5.75
2018-12-24T15:34:09.677Z,5.68
2018-12-24T15:35:41.190Z,5.61
2018-12-24T15:44:00.849Z,5.42
2018-12-24T15:45:31.349Z,5.36
2018-12-24T15:47:01.240Z,5.26
2018-12-24T15:48:31.190Z,5.25
2018-12-24T15:50:01.124Z,5.28
2018-12-24T15:51:30.829Z,5.40
2018-12-24T15:53:00.843Z,5.40
2018-12-24T15:54:31.589Z,5.41
2018-12-24T15:56:01.441Z,5.41
2018-12-24T15:57:31.330Z,5.45
2018-12-24T15:59:01.818Z,5.42
2018-12-24T16:00:31.544Z,5.39
2018-12-24T16:02:01.877Z,5.33
2018-12-24T16:03:36.790Z,5.26
2018-12-24T16:05:03.989Z,5.28
2018-12-24T16:06:33.965Z,5.23
2018-12-24T16:08:03.803Z,5.21
2018-12-24T16:09:33.562Z,5.20
2018-12-24T16:11:03.363Z,5.14
2018-12-24T16:12:33.559Z,5.06
2018-12-24T16:14:03.808Z,5.05
2018-12-24T16:15:33.502Z,4.99
2018-12-24T16:17:04.101Z,4.89
2018-12-24T16:18:34.280Z,4.75
2018-12-24T16:20:04.567Z,4.70
2018-12-24T16:21:34.251Z,4.72
2018-12-24T16:23:04.303Z,4.73
2018-12-24T16:24:34.106Z,4.71
2018-12-24T16:26:04.106Z,4.72
2018-12-24T16:27:34.103Z,4.68
2018-12-24T16:29:04.069Z,4.61
2018-12-24T16:30:34.606Z,4.51
2018-12-24T16:32:04.653Z,4.41
2018-12-24T16:33:35.224Z,4.31
2018-12-24T16:35:05.012Z,4.26
2018-12-24T16:36:34.948Z,4.28
2018-12-24T16:38:05.059Z,4.17
2018-12-24T16:39:34.851Z,4.16
2018-12-24T16:41:04.482Z,4.06
2018-12-24T16:42:34.320Z,4.11
2018-12-24T16:44:04.316Z,4.06
2018-12-24T16:45:33.938Z,4.01
2018-12-24T16:47:03.616Z,3.97
2018-12-24T16:48:33.337Z,3.90
2018-12-24T16:50:04.207Z,3.92
2018-12-24T16:51:34.584Z,3.92
2018-12-24T16:53:04.965Z,4.00
2018-12-24T16:54:34.775Z,4.03
2018-12-24T16:56:04.280Z,4.09
2018-12-24T16:57:34.482Z,4.00
2018-12-24T16:59:04.375Z,4.11
2018-12-24T17:00:34.140Z,4.17
2018-12-24T17:02:03.766Z,4.24
2018-12-24T17:03:33.376Z,4.29
2018-12-24T17:05:03.367Z,4.30
2018-12-24T17:06:33.180Z,4.29
2018-12-24T17:08:02.791Z,4.27
2018-12-24T17:09:32.746Z,4.23
2018-12-24T17:11:02.373Z,4.03
2018-12-24T17:12:31.934Z,3.95
2018-12-24T17:14:01.626Z,3.92
2018-12-24T17:15:31.247Z,3.90
2018-12-24T17:17:07.751Z,3.85
2018-12-24T17:18:32.506Z,3.83
2018-12-24T17:20:02.328Z,3.88
2018-12-24T17:21:33.172Z,3.84
2018-12-24T17:23:02.713Z,3.74
2018-12-24T17:24:32.329Z,3.73
2018-12-24T17:26:01.926Z,3.72
2018-12-24T17:27:31.681Z,3.68
2018-12-24T17:29:01.315Z,3.64
2018-12-24T17:30:31.079Z,3.58
2018-12-24T17:32:00.714Z,3.50
2018-12-24T17:33:30.249Z,3.45
2018-12-24T17:35:00.020Z,3.41
2018-12-24T17:36:30.041Z,3.13
2018-12-24T17:37:59.803Z,3.07
2018-12-24T17:39:29.586Z,3.09
2018-12-24T17:40:59.403Z,3.10
2018-12-24T17:42:29.132Z,3.07
2018-12-24T17:43:58.630Z,2.99
2018-12-24T17:45:28.130Z,3.00
2018-12-24T17:46:58.138Z,2.98
2018-12-24T17:48:27.919Z,2.95
2018-12-24T17:49:57.432Z,2.91
2018-12-24T17:51:27.160Z,2.73
2018-12-24T17:52:56.656Z,2.68
2018-12-24T17:54:26.416Z,2.45
2018-12-24T17:55:55.967Z,2.21
2018-12-24T17:57:25.491Z,2.27
2018-12-24T17:58:55.036Z,2.28
2018-12-24T18:00:24.838Z,2.29
2018-12-24T18:01:54.362Z,2.27
2018-12-24T18:03:24.037Z,2.29
2018-12-24T18:04:53.743Z,2.29
2018-12-24T18:06:23.988Z,2.29
2018-12-24T18:07:53.802Z,2.24
2018-12-24T18:09:23.316Z,2.22
2018-12-24T18:10:52.833Z,2.08
2018-12-24T18:12:22.437Z,2.08
2018-12-24T18:13:52.208Z,2.12
2018-12-24T18:15:21.824Z,2.09
2018-12-24T18:16:51.875Z,2.06
2018-12-24T18:18:21.676Z,2.01
2018-12-24T18:19:51.255Z,2.03
2018-12-24T18:21:20.876Z,1.96
2018-12-24T18:22:50.415Z,1.92
2018-12-24T18:24:20.130Z,1.79
2018-12-24T18:25:49.652Z,1.82
2018-12-24T18:27:19.185Z,1.70
2018-12-24T18:28:49.053Z,1.65
2018-12-24T18:30:18.827Z,1.64
2018-12-24T18:31:48.607Z,1.62
2018-12-24T18:33:18.239Z,1.61
2018-12-24T18:34:48.145Z,1.58
2018-12-24T18:36:17.669Z,1.46
2018-12-24T18:37:47.233Z,1.42
2018-12-24T18:39:17.076Z,1.42
2018-12-24T18:40:46.577Z,1.44
2018-12-24T18:42:16.356Z,1.45
2018-12-24T18:43:45.985Z,1.39
2018-12-24T18:45:15.529Z,1.28
2018-12-24T18:46:45.028Z,1.25
2018-12-24T18:48:14.553Z,1.27
2018-12-24T18:49:44.051Z,1.26
2018-12-24T18:51:14.047Z,1.29
2018-12-24T18:52:43.539Z,1.31
2018-12-24T18:54:13.285Z,1.24
2018-12-24T18:55:43.029Z,1.14
2018-12-24T18:59:35.521Z,1.13
2018-12-24T19:01:05.483Z,1.10
2018-12-24T19:02:35.086Z,1.01
2018-12-24T19:04:04.591Z,0.98
2018-12-24T19:05:34.123Z,0.93
2018-12-24T19:07:03.643Z,0.93
2018-12-24T19:08:33.470Z,0.91
2018-12-24T19:10:04.180Z,0.88
2018-12-24T19:11:33.950Z,0.84
2018-12-24T19:13:03.856Z,0.87
2018-12-24T19:14:33.374Z,0.83
2018-12-24T19:16:03.665Z,0.78
2018-12-24T19:17:41.283Z,0.78
2018-12-24T19:19:04.707Z,0.74
2018-12-24T19:20:34.230Z,0.52
2018-12-24T19:22:03.884Z,0.51
2018-12-24T19:23:33.762Z,0.53
2018-12-24T19:25:03.476Z,0.52
2018-12-24T19:26:33.031Z,0.53
2018-12-24T19:28:02.933Z,0.39
2018-12-24T19:29:32.817Z,0.45
2018-12-24T19:31:02.463Z,0.37
2018-12-24T19:32:32.335Z,0.43
2018-12-24T19:34:01.872Z,0.38
2018-12-24T19:35:31.447Z,0.26
2018-12-24T19:37:01.762Z,0.26
2018-12-24T19:38:31.666Z,0.29
2018-12-24T19:40:01.696Z,0.32
2018-12-24T19:41:31.495Z,0.30
2018-12-24T19:43:01.030Z,0.10
2018-12-24T19:44:30.549Z,-0.01
2018-12-24T19:46:00.229Z,0.05
2018-12-24T19:47:30.079Z,0.08
2018-12-24T19:48:59.722Z,0.11
2018-12-24T19:50:29.546Z,0.14
2018-12-24T19:51:59.083Z,0.17
2018-12-24T19:53:28.705Z,0.22
2018-12-24T19:54:58.506Z,0.19
2018-12-24T19:56:28.129Z,0.14
2018-12-24T19:57:57.644Z,0.05
2018-12-24T19:59:27.258Z,-0.08
2018-12-24T20:00:56.800Z,-0.09
2018-12-24T20:02:26.707Z,-0.10
2018-12-24T20:03:56.310Z,-0.05
2018-12-24T20:05:26.200Z,-0.05
2018-12-24T20:06:55.912Z,-0.03
2018-12-24T20:08:25.430Z,0.00
2018-12-24T20:09:54.942Z,0.00
2018-12-24T20:11:24.776Z,-0.03
2018-12-24T20:12:54.308Z,-0.03
2018-12-24T20:14:23.849Z,-0.06
2018-12-24T20:15:53.368Z,-0.08
2018-12-24T20:17:23.128Z,-0.04
2018-12-24T20:18:53.063Z,-0.07
2018-12-24T20:20:22.715Z,-0.04
2018-12-24T20:21:52.402Z,0.00
2018-12-24T20:23:21.956Z,-0.14
2018-12-24T20:24:51.505Z,-0.18
2018-12-24T20:26:21.039Z,-0.16
2018-12-24T20:27:50.561Z,-0.15
2018-12-24T20:29:20.615Z,-0.25
2018-12-24T20:30:50.137Z,-0.27
2018-12-24T20:32:19.683Z,-0.29
2018-12-24T20:33:49.591Z,-0.31
2018-12-24T20:35:19.128Z,-0.33
2018-12-24T20:36:48.683Z,-0.32